Time;durP1;ratioP1;P1;durP2;ratioP2;P2;SDS_P1;SDS_P2;PMS_P1;PMS_P2;Temp;Humidity;BMP_temperature;BMP_pressure;BME280_temperature;BME280_humidity;BME280_pressure;Samples;Min_cycle;Max_cycle;Signal;HPM_P1;HPM_P2
2022/02/12 00:02:38;;;;;;;70.90;44.97;;;;;;;;;;6298312;28;20764;-65
2022/02/12 00:05:40;;;;;;;66.50;42.08;;;;;;;;;;6307344;28;20036;-62
2022/02/12 00:08:42;;;;;;;70.95;43.08;;;;;;;;;;6307548;28;20040;-62
2022/02/12 00:11:43;;;;;;;70.00;41.45;;;;;;;;;;6306646;28;20224;-62
2022/02/12 00:14:45;;;;;;;65.90;40.45;;;;;;;;;;6306885;28;20043;-63
2022/02/12 00:17:48;;;;;;;67.30;39.85;;;;;;;;;;6312976;28;20086;-61
2022/02/12 00:20:49;;;;;;;62.38;38.47;;;;;;;;;;6304750;28;20085;-66
2022/02/12 00:23:51;;;;;;;70.22;40.50;;;;;;;;;;6303142;28;20048;-62
2022/02/12 00:26:53;;;;;;;60.70;36.75;;;;;;;;;;6305243;28;20080;-67
2022/02/12 00:29:54;;;;;;;61.05;38.45;;;;;;;;;;6310277;28;20193;-66
2022/02/12 00:32:57;;;;;;;62.92;38.40;;;;;;;;;;6313290;28;20134;-67
2022/02/12 00:35:59;;;;;;;63.38;37.75;;;;;;;;;;6310079;28;20167;-67
2022/02/12 00:39:00;;;;;;;60.88;38.67;;;;;;;;;;6303403;28;20059;-67
2022/02/12 00:42:02;;;;;;;62.63;36.45;;;;;;;;;;6299997;28;20048;-66
2022/02/12 00:45:05;;;;;;;57.95;37.67;;;;;;;;;;6300069;28;20546;-61
2022/02/12 00:48:08;;;;;;;56.67;35.35;;;;;;;;;;6304027;28;20553;-62
2022/02/12 00:51:09;;;;;;;62.25;35.45;;;;;;;;;;6305598;28;20525;-61
2022/02/12 00:54:11;;;;;;;55.20;35.70;;;;;;;;;;6311695;28;20044;-61
2022/02/12 00:57:13;;;;;;;59.25;35.60;;;;;;;;;;6308020;28;20053;-61
2022/02/12 01:00:15;;;;;;;54.35;32.78;;;;;;;;;;6305006;28;20370;-61
2022/02/12 01:03:18;;;;;;;54.10;30.98;;;;;;;;;;6307251;28;20128;-61
2022/02/12 01:06:20;;;;;;;60.30;33.38;;;;;;;;;;6308746;28;20517;-61
2022/02/12 01:09:22;;;;;;;53.03;31.67;;;;;;;;;;6310206;28;20173;-60
2022/02/12 01:12:23;;;;;;;54.15;30.98;;;;;;;;;;6312282;28;20041;-61
2022/02/12 01:15:25;;;;;;;58.90;32.42;;;;;;;;;;6314101;28;20075;-61
2022/02/12 01:18:28;;;;;;;50.40;31.75;;;;;;;;;;6307071;28;20135;-64
2022/02/12 01:21:29;;;;;;;54.35;33.47;;;;;;;;;;6308407;28;20048;-62
2022/02/12 01:24:31;;;;;;;53.00;31.55;;;;;;;;;;6307420;28;20147;-61
2022/02/12 01:27:33;;;;;;;53.65;31.35;;;;;;;;;;6302155;28;20129;-62
2022/02/12 01:30:35;;;;;;;46.75;25.48;;;;;;;;;;6302614;28;20525;-62
2022/02/12 01:33:37;;;;;;;52.13;30.05;;;;;;;;;;6305432;28;20123;-62
2022/02/12 01:36:39;;;;;;;52.05;30.25;;;;;;;;;;6307759;28;20433;-62
2022/02/12 01:39:41;;;;;;;52.67;30.63;;;;;;;;;;6307019;28;20071;-62
2022/02/12 01:42:42;;;;;;;46.35;27.70;;;;;;;;;;6300867;28;20190;-62
2022/02/12 01:45:44;;;;;;;48.92;26.88;;;;;;;;;;6305690;28;20125;-65
2022/02/12 01:48:49;;;;;;;45.05;25.02;;;;;;;;;;6307892;28;20127;-64
2022/02/12 01:51:50;;;;;;;40.78;24.65;;;;;;;;;;6309494;28;20042;-66
2022/02/12 01:54:52;;;;;;;35.65;23.60;;;;;;;;;;6310074;28;20113;-62
2022/02/12 01:57:54;;;;;;;38.97;24.08;;;;;;;;;;6310912;28;20123;-65
2022/02/12 02:00:56;;;;;;;39.67;23.15;;;;;;;;;;6306628;28;20424;-63
2022/02/12 02:03:58;;;;;;;42.83;24.13;;;;;;;;;;6303188;28;20131;-65
2022/02/12 02:07:00;;;;;;;40.47;23.75;;;;;;;;;;6306402;28;20490;-63
2022/02/12 02:10:04;;;;;;;37.83;23.30;;;;;;;;;;6304983;28;20122;-64
2022/02/12 02:13:05;;;;;;;37.53;22.08;;;;;;;;;;6306457;28;20055;-63
2022/02/12 02:16:10;;;;;;;38.17;21.92;;;;;;;;;;6310783;28;20124;-62
2022/02/12 02:19:14;;;;;;;39.90;23.23;;;;;;;;;;6305731;28;20064;-62
2022/02/12 02:22:16;;;;;;;37.37;21.83;;;;;;;;;;6307055;28;20412;-61
2022/02/12 02:25:20;;;;;;;36.33;20.70;;;;;;;;;;6305717;28;20458;-62
2022/02/12 02:28:21;;;;;;;35.67;21.00;;;;;;;;;;6311383;28;20135;-64
2022/02/12 02:31:23;;;;;;;35.22;21.23;;;;;;;;;;6308700;28;22094;-63
2022/02/12 02:34:26;;;;;;;37.78;20.52;;;;;;;;;;6300920;28;20547;-64
2022/02/12 02:37:27;;;;;;;33.47;20.48;;;;;;;;;;6303888;28;20190;-64
2022/02/12 02:40:30;;;;;;;34.75;19.85;;;;;;;;;;6302759;28;20055;-64
2022/02/12 02:43:32;;;;;;;33.97;20.27;;;;;;;;;;6301421;28;20136;-64
2022/02/12 02:46:34;;;;;;;32.85;20.52;;;;;;;;;;6302444;28;20114;-64
2022/02/12 02:49:35;;;;;;;34.33;20.50;;;;;;;;;;6297004;28;20127;-64
2022/02/12 02:56:03;;;;;;;34.22;21.05;;;;;;;;;;6300656;28;20044;-64
2022/02/12 02:59:06;;;;;;;34.58;20.80;;;;;;;;;;6302680;28;20060;-64
2022/02/12 03:02:07;;;;;;;38.38;20.92;;;;;;;;;;6302559;28;20510;-64
2022/02/12 03:05:09;;;;;;;30.85;19.20;;;;;;;;;;6304966;28;20423;-64
2022/02/12 03:08:11;;;;;;;33.13;18.77;;;;;;;;;;6299981;28;20506;-64
2022/02/12 03:11:16;;;;;;;31.90;19.23;;;;;;;;;;6306471;28;20135;-65
2022/02/12 03:14:17;;;;;;;33.88;19.00;;;;;;;;;;6300807;28;20125;-64
2022/02/12 03:17:19;;;;;;;31.85;18.40;;;;;;;;;;6302434;28;20257;-64
2022/02/12 03:20:21;;;;;;;29.38;17.48;;;;;;;;;;6306207;28;20181;-64
2022/02/12 03:23:22;;;;;;;30.13;18.17;;;;;;;;;;6304699;28;20177;-64
2022/02/12 03:26:25;;;;;;;28.75;17.77;;;;;;;;;;6303388;28;20083;-64
2022/02/12 03:29:27;;;;;;;31.40;18.55;;;;;;;;;;6301835;28;20121;-64
2022/02/12 03:32:29;;;;;;;27.50;17.25;;;;;;;;;;6299625;28;20113;-64
2022/02/12 03:35:30;;;;;;;28.58;17.98;;;;;;;;;;6303796;28;20117;-65
2022/02/12 03:38:35;;;;;;;31.35;19.33;;;;;;;;;;6302365;28;20040;-64
2022/02/12 03:41:38;;;;;;;30.13;17.67;;;;;;;;;;6307380;28;20403;-64
2022/02/12 03:44:39;;;;;;;32.97;18.15;;;;;;;;;;6300764;28;20492;-64
2022/02/12 03:47:41;;;;;;;32.63;18.23;;;;;;;;;;6306697;28;20503;-63
2022/02/12 03:50:43;;;;;;;30.30;19.33;;;;;;;;;;6304290;28;20074;-63
2022/02/12 03:53:45;;;;;;;34.28;19.08;;;;;;;;;;6305936;28;20080;-65
2022/02/12 03:56:48;;;;;;;34.30;20.15;;;;;;;;;;6305831;28;20054;-62
2022/02/12 03:59:49;;;;;;;39.97;19.70;;;;;;;;;;6305781;28;20071;-62
2022/02/12 04:02:51;;;;;;;32.05;20.42;;;;;;;;;;6304721;28;20071;-64
2022/02/12 04:05:52;;;;;;;34.42;20.60;;;;;;;;;;6302312;28;20505;-65
2022/02/12 04:08:54;;;;;;;35.85;20.48;;;;;;;;;;6302072;28;20115;-63
2022/02/12 04:11:57;;;;;;;36.95;20.50;;;;;;;;;;6302573;28;20060;-63
2022/02/12 04:14:59;;;;;;;35.75;19.40;;;;;;;;;;6299738;28;20052;-63
2022/02/12 04:18:00;;;;;;;33.25;19.23;;;;;;;;;;6307592;28;20222;-63
2022/02/12 04:21:02;;;;;;;31.63;17.45;;;;;;;;;;6302514;28;20051;-63
2022/02/12 04:24:04;;;;;;;34.50;19.52;;;;;;;;;;6309997;28;20130;-64
2022/02/12 04:27:07;;;;;;;38.40;18.17;;;;;;;;;;6308424;28;20064;-63
2022/02/12 04:30:10;;;;;;;29.88;17.85;;;;;;;;;;6307752;28;20043;-63
2022/02/12 04:33:12;;;;;;;28.85;16.20;;;;;;;;;;6304552;28;20448;-66
2022/02/12 04:36:13;;;;;;;30.35;16.35;;;;;;;;;;6305415;28;20093;-63
2022/02/12 04:39:15;;;;;;;29.77;17.58;;;;;;;;;;6308606;28;20637;-64
2022/02/12 04:42:18;;;;;;;30.70;17.50;;;;;;;;;;6306425;28;20048;-64
2022/02/12 04:45:20;;;;;;;31.73;17.80;;;;;;;;;;6309075;28;20052;-64
2022/02/12 04:48:21;;;;;;;29.90;16.58;;;;;;;;;;6307766;28;20044;-64
2022/02/12 04:51:23;;;;;;;30.88;15.82;;;;;;;;;;6309066;28;20145;-64
2022/02/12 04:54:25;;;;;;;32.92;16.45;;;;;;;;;;6301002;28;20055;-63
2022/02/12 04:57:27;;;;;;;30.20;17.73;;;;;;;;;;6303768;28;20048;-65
2022/02/12 05:00:29;;;;;;;29.63;16.60;;;;;;;;;;6300873;28;20474;-64
2022/02/12 05:03:31;;;;;;;30.48;17.00;;;;;;;;;;6303533;28;20507;-64
2022/02/12 05:06:32;;;;;;;28.45;16.63;;;;;;;;;;6306327;28;20501;-64
2022/02/12 05:09:35;;;;;;;29.95;16.20;;;;;;;;;;6309783;28;20621;-64
2022/02/12 05:12:38;;;;;;;31.30;18.25;;;;;;;;;;6306049;28;20048;-64
2022/02/12 05:15:39;;;;;;;31.05;17.67;;;;;;;;;;6305567;28;20066;-65
2022/02/12 05:18:41;;;;;;;33.92;17.52;;;;;;;;;;6306233;28;20056;-65
2022/02/12 05:21:43;;;;;;;36.13;17.70;;;;;;;;;;6305907;28;20140;-64
2022/02/12 05:24:44;;;;;;;30.63;17.73;;;;;;;;;;6304238;28;20047;-64
2022/02/12 05:27:47;;;;;;;32.03;16.77;;;;;;;;;;6305296;28;20052;-64
2022/02/12 05:30:49;;;;;;;32.38;17.95;;;;;;;;;;6305337;28;20060;-64
2022/02/12 05:33:50;;;;;;;32.85;17.98;;;;;;;;;;6306817;28;20052;-64
2022/02/12 05:36:52;;;;;;;32.58;18.88;;;;;;;;;;6308559;28;20179;-64
2022/02/12 05:39:53;;;;;;;34.30;17.63;;;;;;;;;;6310488;28;20102;-64
2022/02/12 05:42:59;;;;;;;39.72;18.38;;;;;;;;;;6310174;28;21424;-64
2022/02/12 05:46:01;;;;;;;33.20;18.30;;;;;;;;;;6313766;28;20061;-66
2022/02/12 05:49:04;;;;;;;37.25;18.65;;;;;;;;;;6310183;28;20078;-64
2022/02/12 05:52:06;;;;;;;37.67;18.90;;;;;;;;;;6308599;28;20117;-64
2022/02/12 05:55:08;;;;;;;33.95;18.17;;;;;;;;;;6302838;28;20145;-64
2022/02/12 05:58:11;;;;;;;34.25;20.33;;;;;;;;;;6308868;28;20079;-64
2022/02/12 06:01:13;;;;;;;34.20;18.80;;;;;;;;;;6303473;28;20075;-65
2022/02/12 06:04:14;;;;;;;32.95;19.35;;;;;;;;;;6304096;28;20445;-64
2022/02/12 06:07:16;;;;;;;35.95;19.25;;;;;;;;;;6307953;28;20080;-64
2022/02/12 06:10:17;;;;;;;39.10;19.77;;;;;;;;;;6308274;28;20514;-64
2022/02/12 06:13:20;;;;;;;33.45;18.92;;;;;;;;;;6308855;28;20151;-65
2022/02/12 06:16:23;;;;;;;35.13;18.73;;;;;;;;;;6304586;28;20526;-64
2022/02/12 06:19:25;;;;;;;34.90;18.30;;;;;;;;;;6306854;28;20052;-64
2022/02/12 06:22:28;;;;;;;33.30;18.77;;;;;;;;;;6307096;28;20127;-66
2022/02/12 06:25:30;;;;;;;33.65;18.45;;;;;;;;;;6309265;28;20041;-66
2022/02/12 06:28:33;;;;;;;31.40;18.55;;;;;;;;;;6310699;28;20134;-63
2022/02/12 06:31:35;;;;;;;32.58;18.55;;;;;;;;;;6307907;28;20596;-64
2022/02/12 06:34:37;;;;;;;30.10;17.10;;;;;;;;;;6309580;28;20591;-64
2022/02/12 06:37:38;;;;;;;32.10;18.27;;;;;;;;;;6306111;28;20122;-64
2022/02/12 06:40:40;;;;;;;32.47;18.23;;;;;;;;;;6302225;28;20123;-64
2022/02/12 06:43:43;;;;;;;36.38;18.13;;;;;;;;;;6307089;28;20513;-64
2022/02/12 06:46:44;;;;;;;30.17;17.75;;;;;;;;;;6311636;28;20121;-64
2022/02/12 06:49:46;;;;;;;31.50;17.52;;;;;;;;;;6313209;28;20562;-64
2022/02/12 06:52:47;;;;;;;31.83;17.88;;;;;;;;;;6306323;28;20498;-64
2022/02/12 06:55:49;;;;;;;29.10;17.40;;;;;;;;;;6311716;28;20151;-64
2022/02/12 06:58:52;;;;;;;28.95;16.25;;;;;;;;;;6310739;28;20123;-64
2022/02/12 07:01:53;;;;;;;27.95;15.10;;;;;;;;;;6305034;28;20121;-64
2022/02/12 07:04:57;;;;;;;30.70;14.95;;;;;;;;;;6300374;28;20044;-65
2022/02/12 07:07:59;;;;;;;31.05;15.60;;;;;;;;;;6304125;28;20048;-64
2022/02/12 07:11:00;;;;;;;37.28;15.23;;;;;;;;;;6302551;28;20135;-65
2022/02/12 07:14:03;;;;;;;29.00;15.10;;;;;;;;;;6307243;28;20630;-64
2022/02/12 07:17:05;;;;;;;25.95;14.75;;;;;;;;;;6301927;28;20131;-64
2022/02/12 07:20:08;;;;;;;24.88;14.27;;;;;;;;;;6302211;28;20144;-63
2022/02/12 07:23:09;;;;;;;28.83;14.32;;;;;;;;;;6303836;28;20083;-65
2022/02/12 07:26:12;;;;;;;22.20;13.85;;;;;;;;;;6301262;28;20084;-62
2022/02/12 07:29:15;;;;;;;27.13;15.38;;;;;;;;;;6302269;28;20051;-64
2022/02/12 07:32:16;;;;;;;23.15;13.88;;;;;;;;;;6307872;28;20444;-63
2022/02/12 07:35:18;;;;;;;23.63;13.98;;;;;;;;;;6310232;28;20170;-63
2022/02/12 07:38:20;;;;;;;29.63;15.38;;;;;;;;;;6306150;28;20121;-64
2022/02/12 07:41:22;;;;;;;24.05;14.32;;;;;;;;;;6305729;28;20131;-64
2022/02/12 07:44:25;;;;;;;28.20;14.00;;;;;;;;;;6302657;28;20094;-64
2022/02/12 07:47:26;;;;;;;33.45;15.57;;;;;;;;;;6305934;28;20055;-63
2022/02/12 07:50:28;;;;;;;24.17;14.30;;;;;;;;;;6308303;28;21030;-64
2022/02/12 07:53:29;;;;;;;30.55;14.07;;;;;;;;;;6303982;28;20131;-64
2022/02/12 07:56:31;;;;;;;25.02;15.18;;;;;;;;;;6304206;28;20129;-65
2022/02/12 07:59:35;;;;;;;30.70;14.27;;;;;;;;;;6305695;28;20056;-64
2022/02/12 08:02:37;;;;;;;27.10;13.82;;;;;;;;;;6302960;28;20110;-64
2022/02/12 08:05:38;;;;;;;28.23;14.55;;;;;;;;;;6309477;28;20124;-65
2022/02/12 08:08:40;;;;;;;24.25;12.65;;;;;;;;;;6305163;28;20049;-65
2022/02/12 08:11:47;;;;;;;23.70;13.35;;;;;;;;;;6306866;28;20044;-64
2022/02/12 08:14:52;;;;;;;23.35;13.85;;;;;;;;;;6307209;28;20052;-65
2022/02/12 08:17:53;;;;;;;20.13;11.52;;;;;;;;;;6305755;28;20103;-64
2022/02/12 08:20:55;;;;;;;20.30;12.18;;;;;;;;;;6307573;28;20102;-63
2022/02/12 08:23:56;;;;;;;21.58;11.45;;;;;;;;;;6308417;28;20200;-63
2022/02/12 08:26:58;;;;;;;21.08;11.65;;;;;;;;;;6302524;28;20183;-63
2022/02/12 08:30:02;;;;;;;18.77;11.23;;;;;;;;;;6303675;28;20178;-63
2022/02/12 08:33:03;;;;;;;17.65;10.60;;;;;;;;;;6306033;28;20045;-63
2022/02/12 08:36:05;;;;;;;16.15;10.63;;;;;;;;;;6311151;28;20543;-63
2022/02/12 08:39:07;;;;;;;22.80;9.43;;;;;;;;;;6313631;28;20180;-63
2022/02/12 08:42:09;;;;;;;17.83;8.75;;;;;;;;;;6310954;28;20130;-64
2022/02/12 08:45:12;;;;;;;16.88;8.55;;;;;;;;;;6305031;28;20135;-64
2022/02/12 08:48:14;;;;;;;17.45;8.05;;;;;;;;;;6309351;28;20049;-63
2022/02/12 08:51:15;;;;;;;13.98;8.15;;;;;;;;;;6311972;28;20123;-62
2022/02/12 08:54:17;;;;;;;14.45;7.20;;;;;;;;;;6309630;28;20144;-63
2022/02/12 08:57:19;;;;;;;16.42;7.60;;;;;;;;;;6315411;28;20455;-62
2022/02/12 09:00:22;;;;;;;10.30;6.28;;;;;;;;;;6309762;28;20049;-64
2022/02/12 09:03:24;;;;;;;11.03;6.03;;;;;;;;;;6309621;28;20083;-62
2022/02/12 09:06:25;;;;;;;8.63;5.68;;;;;;;;;;6309962;28;20123;-62
2022/02/12 09:09:27;;;;;;;11.23;5.50;;;;;;;;;;6308565;28;20131;-62
2022/02/12 09:12:29;;;;;;;10.20;4.85;;;;;;;;;;6306721;28;20071;-64
2022/02/12 09:15:32;;;;;;;12.35;5.72;;;;;;;;;;6312019;28;20040;-62
2022/02/12 09:18:34;;;;;;;11.68;5.78;;;;;;;;;;6309841;28;20556;-64
2022/02/12 09:21:35;;;;;;;7.90;5.00;;;;;;;;;;6309819;28;20135;-63
2022/02/12 09:24:37;;;;;;;6.85;3.97;;;;;;;;;;6307883;28;20135;-64
2022/02/12 09:27:39;;;;;;;8.43;4.47;;;;;;;;;;6308680;28;20131;-63
2022/02/12 09:30:42;;;;;;;10.18;4.80;;;;;;;;;;6304381;28;20380;-65
2022/02/12 09:33:43;;;;;;;14.52;4.30;;;;;;;;;;6304785;28;20085;-66
2022/02/12 09:36:45;;;;;;;6.38;4.00;;;;;;;;;;6305190;28;20141;-63
2022/02/12 09:39:46;;;;;;;7.72;3.47;;;;;;;;;;6313353;28;20279;-63
2022/02/12 09:42:48;;;;;;;11.00;3.83;;;;;;;;;;6310801;28;20052;-63
2022/02/12 09:45:58;;;;;;;5.13;3.10;;;;;;;;;;6308301;28;20048;-63
2022/02/12 09:49:01;;;;;;;6.28;3.13;;;;;;;;;;6308654;28;20407;-64
2022/02/12 09:52:03;;;;;;;5.70;3.20;;;;;;;;;;6309342;28;20120;-63
2022/02/12 09:55:06;;;;;;;6.25;2.80;;;;;;;;;;6301006;28;20396;-64
2022/02/12 09:58:10;;;;;;;8.77;3.00;;;;;;;;;;6308787;28;20188;-64
2022/02/12 10:01:13;;;;;;;5.47;2.90;;;;;;;;;;6304742;28;20040;-63
2022/02/12 10:04:16;;;;;;;4.72;2.30;;;;;;;;;;6309330;28;20593;-65
2022/02/12 10:07:25;;;;;;;3.85;2.42;;;;;;;;;;6301811;28;20487;-65
2022/02/12 10:10:29;;;;;;;5.47;2.75;;;;;;;;;;6303303;28;20422;-62
2022/02/12 10:13:31;;;;;;;5.47;3.23;;;;;;;;;;6300506;28;20047;-64
2022/02/12 10:16:52;;;;;;;7.05;3.30;;;;;;;;;;6301006;28;20056;-64
2022/02/12 10:19:54;;;;;;;6.00;2.80;;;;;;;;;;6307780;28;20041;-65
2022/02/12 10:23:08;;;;;;;5.40;2.60;;;;;;;;;;6307813;28;20519;-64
2022/02/12 10:26:11;;;;;;;4.35;2.75;;;;;;;;;;6316054;28;20120;-64
2022/02/12 10:29:16;;;;;;;3.90;2.30;;;;;;;;;;6306353;28;20049;-64
2022/02/12 10:32:20;;;;;;;5.50;2.50;;;;;;;;;;6306266;28;20205;-63
2022/02/12 10:35:22;;;;;;;4.25;2.45;;;;;;;;;;6311712;28;20068;-65
2022/02/12 10:38:25;;;;;;;5.95;2.70;;;;;;;;;;6309080;28;20135;-64
2022/02/12 10:41:27;;;;;;;5.20;2.65;;;;;;;;;;6311316;28;20150;-65
2022/02/12 10:44:29;;;;;;;4.88;2.22;;;;;;;;;;6313198;28;20040;-63
2022/02/12 10:47:32;;;;;;;4.05;2.08;;;;;;;;;;6310902;28;20037;-63
2022/02/12 10:50:33;;;;;;;2.58;1.55;;;;;;;;;;6309265;28;20044;-65
2022/02/12 10:53:35;;;;;;;3.72;2.70;;;;;;;;;;6302299;28;20118;-65
2022/02/12 10:56:44;;;;;;;3.08;2.00;;;;;;;;;;6296034;28;20105;-64
2022/02/12 10:59:46;;;;;;;5.93;2.30;;;;;;;;;;6299214;28;20044;-64
2022/02/12 11:02:49;;;;;;;4.80;2.30;;;;;;;;;;6302848;28;20441;-64
2022/02/12 11:05:53;;;;;;;3.70;1.90;;;;;;;;;;6307845;28;20178;-66
2022/02/12 11:08:54;;;;;;;2.42;1.60;;;;;;;;;;6304209;28;20129;-65
2022/02/12 11:11:56;;;;;;;4.50;2.10;;;;;;;;;;6305075;28;20126;-63
2022/02/12 11:14:58;;;;;;;3.95;2.03;;;;;;;;;;6305537;28;20458;-63
2022/02/12 11:18:03;;;;;;;2.90;1.95;;;;;;;;;;6298166;28;20048;-63
2022/02/12 11:21:05;;;;;;;4.07;2.17;;;;;;;;;;6302538;28;20571;-64
2022/02/12 11:24:11;;;;;;;3.30;1.73;;;;;;;;;;6308996;28;20425;-65
2022/02/12 11:27:17;;;;;;;3.22;2.00;;;;;;;;;;6307820;28;20037;-64
2022/02/12 11:30:20;;;;;;;2.88;2.03;;;;;;;;;;6303337;28;20044;-65
2022/02/12 11:33:24;;;;;;;3.05;2.00;;;;;;;;;;6308185;28;20052;-61
2022/02/12 11:36:26;;;;;;;4.63;2.17;;;;;;;;;;6309220;28;20057;-63
2022/02/12 11:39:28;;;;;;;4.80;2.40;;;;;;;;;;6302155;28;20073;-63
2022/02/12 11:42:40;;;;;;;4.18;2.60;;;;;;;;;;6306061;28;20184;-62
2022/02/12 11:45:43;;;;;;;3.80;2.10;;;;;;;;;;6307018;28;20124;-63
2022/02/12 11:48:46;;;;;;;3.55;2.10;;;;;;;;;;6305566;28;20049;-63
2022/02/12 11:51:48;;;;;;;3.45;2.38;;;;;;;;;;6306488;28;20123;-61
2022/02/12 11:54:56;;;;;;;5.30;2.70;;;;;;;;;;6298944;28;20044;-64
2022/02/12 11:57:57;;;;;;;3.95;2.78;;;;;;;;;;6297584;28;20507;-64
2022/02/12 12:00:59;;;;;;;1.88;1.60;;;;;;;;;;6299651;28;20044;-64
2022/02/12 12:04:06;;;;;;;5.38;2.63;;;;;;;;;;6299929;28;20086;-64
2022/02/12 12:07:13;;;;;;;4.43;2.25;;;;;;;;;;6303566;28;20132;-64
2022/02/12 12:10:15;;;;;;;4.45;2.50;;;;;;;;;;6305864;28;20044;-64
2022/02/12 12:13:43;;;;;;;5.00;2.47;;;;;;;;;;6307214;28;20349;-65
2022/02/12 12:16:52;;;;;;;6.03;2.40;;;;;;;;;;6298203;28;20090;-64
2022/02/12 12:19:55;;;;;;;5.47;2.70;;;;;;;;;;6299370;28;20123;-64
2022/02/12 12:23:01;;;;;;;4.45;2.90;;;;;;;;;;6302683;28;20079;-63
2022/02/12 12:26:04;;;;;;;4.65;2.90;;;;;;;;;;6304191;28;20473;-64
2022/02/12 12:32:30;;;;;;;4.13;2.95;;;;;;;;;;6274578;28;20980;-67
2022/02/12 12:35:33;;;;;;;3.88;2.40;;;;;;;;;;6311124;28;20510;-66
2022/02/12 12:38:39;;;;;;;2.92;1.92;;;;;;;;;;6309921;28;20048;-65
2022/02/12 12:41:43;;;;;;;5.47;2.22;;;;;;;;;;6309057;28;20119;-66
2022/02/12 12:44:57;;;;;;;3.47;2.45;;;;;;;;;;6311373;28;20175;-66
2022/02/12 12:47:58;;;;;;;4.28;2.30;;;;;;;;;;6312487;28;20040;-65
2022/02/12 12:51:01;;;;;;;2.95;2.13;;;;;;;;;;6313032;28;20118;-66
2022/02/12 12:54:03;;;;;;;4.05;2.17;;;;;;;;;;6308397;28;20131;-66
2022/02/12 12:57:05;;;;;;;4.32;2.15;;;;;;;;;;6305588;28;20495;-67
2022/02/12 13:00:08;;;;;;;4.95;2.42;;;;;;;;;;6313916;28;20135;-68
2022/02/12 13:03:10;;;;;;;6.63;2.27;;;;;;;;;;6309550;28;20044;-66
2022/02/12 13:06:14;;;;;;;3.42;2.55;;;;;;;;;;6307950;28;20543;-64
2022/02/12 13:09:16;;;;;;;4.75;2.15;;;;;;;;;;6316054;28;20051;-65
2022/02/12 13:12:29;;;;;;;3.05;1.92;;;;;;;;;;6313373;28;20121;-64
2022/02/12 13:15:35;;;;;;;2.97;1.98;;;;;;;;;;6308993;28;20063;-64
2022/02/12 13:18:37;;;;;;;4.82;2.10;;;;;;;;;;6310736;28;20500;-65
2022/02/12 13:21:46;;;;;;;4.65;2.10;;;;;;;;;;6306560;28;20068;-64
2022/02/12 13:24:53;;;;;;;5.40;2.03;;;;;;;;;;6306373;28;20052;-64
2022/02/12 13:27:55;;;;;;;3.78;1.83;;;;;;;;;;6308693;28;20349;-64
2022/02/12 13:30:56;;;;;;;3.60;1.80;;;;;;;;;;6306908;28;20138;-65
2022/02/12 13:33:59;;;;;;;3.35;2.20;;;;;;;;;;6309992;28;20123;-64
2022/02/12 13:37:02;;;;;;;4.43;2.03;;;;;;;;;;6315716;28;22688;-67
2022/02/12 13:40:04;;;;;;;7.47;2.78;;;;;;;;;;6312399;28;20186;-64
2022/02/12 13:43:07;;;;;;;10.40;2.88;;;;;;;;;;6309038;28;20072;-64
2022/02/12 13:46:09;;;;;;;5.37;2.30;;;;;;;;;;6309163;28;20054;-65
2022/02/12 13:49:18;;;;;;;3.28;2.03;;;;;;;;;;6309108;28;20075;-65
2022/02/12 13:52:21;;;;;;;3.63;2.05;;;;;;;;;;6311794;28;20060;-65
2022/02/12 13:55:25;;;;;;;20.60;4.20;;;;;;;;;;6302227;28;20127;-65
2022/02/12 13:58:27;;;;;;;4.45;2.30;;;;;;;;;;6306788;28;20966;-65
2022/02/12 14:01:29;;;;;;;4.25;2.22;;;;;;;;;;6303951;28;20036;-64
2022/02/12 14:04:31;;;;;;;5.38;2.13;;;;;;;;;;6298414;28;20048;-64
2022/02/12 14:07:33;;;;;;;4.65;2.22;;;;;;;;;;6301295;28;20626;-64
2022/02/12 14:10:36;;;;;;;6.23;2.17;;;;;;;;;;6301985;28;20569;-64
2022/02/12 14:13:38;;;;;;;4.13;2.30;;;;;;;;;;6301752;28;20439;-64
2022/02/12 14:16:40;;;;;;;3.70;2.03;;;;;;;;;;6301388;28;20217;-63
2022/02/12 14:19:42;;;;;;;3.30;1.83;;;;;;;;;;6301814;28;20347;-64
2022/02/12 14:22:45;;;;;;;5.18;1.83;;;;;;;;;;6301317;28;20392;-62
2022/02/12 14:25:46;;;;;;;2.83;1.90;;;;;;;;;;6299982;28;20123;-63
2022/02/12 14:28:48;;;;;;;3.28;2.00;;;;;;;;;;6298193;28;20145;-65
2022/02/12 14:31:49;;;;;;;6.35;1.88;;;;;;;;;;6300965;28;20769;-62
2022/02/12 14:34:51;;;;;;;4.93;2.00;;;;;;;;;;6304064;28;20226;-66
2022/02/12 14:37:54;;;;;;;4.75;2.00;;;;;;;;;;6309993;28;20044;-64
2022/02/12 14:40:56;;;;;;;3.33;2.10;;;;;;;;;;6302635;28;20078;-63
2022/02/12 14:43:57;;;;;;;2.60;1.80;;;;;;;;;;6304624;28;20067;-64
2022/02/12 14:46:59;;;;;;;3.50;1.80;;;;;;;;;;6300075;28;20121;-64
2022/02/12 14:50:00;;;;;;;3.75;2.17;;;;;;;;;;6299842;28;20131;-63
2022/02/12 14:53:03;;;;;;;4.03;2.75;;;;;;;;;;6296701;28;20551;-63
2022/02/12 14:56:07;;;;;;;4.73;2.57;;;;;;;;;;6307525;28;20575;-63
2022/02/12 14:59:09;;;;;;;3.78;2.50;;;;;;;;;;6304915;28;20052;-62
2022/02/12 15:02:11;;;;;;;4.05;2.70;;;;;;;;;;6308597;28;20052;-62
2022/02/12 15:05:13;;;;;;;4.47;2.22;;;;;;;;;;6300363;28;20178;-63
2022/02/12 15:08:16;;;;;;;4.93;2.75;;;;;;;;;;6301180;28;20139;-62
2022/02/12 15:11:18;;;;;;;4.97;2.20;;;;;;;;;;6305722;28;20048;-63
2022/02/12 15:14:19;;;;;;;7.57;2.13;;;;;;;;;;6305434;28;20861;-63
2022/02/12 15:17:21;;;;;;;2.88;1.95;;;;;;;;;;6299786;28;20194;-64
2022/02/12 15:20:22;;;;;;;12.95;2.70;;;;;;;;;;6301484;28;20138;-63
2022/02/12 15:23:25;;;;;;;2.33;1.80;;;;;;;;;;6306723;28;20565;-64
2022/02/12 15:26:27;;;;;;;2.97;1.73;;;;;;;;;;6302730;28;20450;-64
2022/02/12 15:29:28;;;;;;;3.42;2.10;;;;;;;;;;6302012;28;20169;-63
2022/02/12 15:32:30;;;;;;;3.05;1.60;;;;;;;;;;6301077;28;20389;-64
2022/02/12 15:35:32;;;;;;;4.25;2.10;;;;;;;;;;6301267;28;20416;-63
2022/02/12 15:38:35;;;;;;;2.65;1.70;;;;;;;;;;6306811;28;20068;-63
2022/02/12 15:41:37;;;;;;;2.72;1.80;;;;;;;;;;6309159;28;20165;-64
2022/02/12 15:44:38;;;;;;;3.08;1.83;;;;;;;;;;6308313;28;20535;-63
2022/02/12 15:47:40;;;;;;;4.05;1.85;;;;;;;;;;6305510;28;20510;-65
2022/02/12 15:50:42;;;;;;;2.60;2.13;;;;;;;;;;6302414;28;20117;-64
2022/02/12 15:53:45;;;;;;;2.65;1.75;;;;;;;;;;6298473;28;20444;-65
2022/02/12 15:56:47;;;;;;;4.10;1.93;;;;;;;;;;6297625;28;20144;-65
2022/02/12 15:59:49;;;;;;;2.50;2.10;;;;;;;;;;6302379;28;20155;-64
2022/02/12 16:02:50;;;;;;;3.92;2.25;;;;;;;;;;6297266;28;20401;-64
2022/02/12 16:05:52;;;;;;;2.97;2.00;;;;;;;;;;6297433;28;20563;-64
2022/02/12 16:08:54;;;;;;;2.40;1.63;;;;;;;;;;6301086;28;20127;-64
2022/02/12 16:11:56;;;;;;;2.33;1.58;;;;;;;;;;6300646;28;20170;-64
2022/02/12 16:14:58;;;;;;;2.92;1.60;;;;;;;;;;6305697;28;20380;-64
2022/02/12 16:17:59;;;;;;;2.08;1.40;;;;;;;;;;6303404;28;20113;-64
2022/02/12 16:21:01;;;;;;;2.50;1.60;;;;;;;;;;6305029;28;20109;-66
2022/02/12 16:24:05;;;;;;;1.92;1.35;;;;;;;;;;6306238;28;20106;-65
2022/02/12 16:27:07;;;;;;;3.40;1.40;;;;;;;;;;6305199;28;20124;-64
2022/02/12 16:30:09;;;;;;;3.95;1.80;;;;;;;;;;6311107;28;20415;-65
2022/02/12 16:33:11;;;;;;;2.75;1.65;;;;;;;;;;6305121;28;20125;-64
2022/02/12 16:36:13;;;;;;;6.18;1.80;;;;;;;;;;6309073;28;20067;-64
2022/02/12 16:39:16;;;;;;;4.28;1.63;;;;;;;;;;6308828;28;20117;-64
2022/02/12 16:42:18;;;;;;;4.32;1.88;;;;;;;;;;6309349;28;20117;-63
2022/02/12 16:45:20;;;;;;;4.40;1.60;;;;;;;;;;6308449;28;20094;-65
2022/02/12 16:48:21;;;;;;;4.00;1.60;;;;;;;;;;6311312;28;20478;-64
2022/02/12 16:51:25;;;;;;;2.95;1.48;;;;;;;;;;6309438;28;20075;-65
2022/02/12 16:54:28;;;;;;;2.55;1.40;;;;;;;;;;6303430;28;20130;-65
2022/02/12 16:57:31;;;;;;;4.03;1.42;;;;;;;;;;6298745;28;20067;-64
2022/02/12 17:00:32;;;;;;;3.45;2.05;;;;;;;;;;6301062;28;20044;-64
2022/02/12 17:03:34;;;;;;;2.50;1.38;;;;;;;;;;6298593;28;20170;-64
2022/02/12 17:06:36;;;;;;;3.72;1.58;;;;;;;;;;6301971;28;20059;-64
2022/02/12 17:09:39;;;;;;;3.50;1.75;;;;;;;;;;6306185;28;20573;-64
2022/02/12 17:12:41;;;;;;;3.08;2.20;;;;;;;;;;6309872;28;20280;-64
2022/02/12 17:15:46;;;;;;;2.55;1.48;;;;;;;;;;6310189;28;20037;-63
2022/02/12 17:18:47;;;;;;;4.32;1.75;;;;;;;;;;6308002;28;20047;-66
2022/02/12 17:21:49;;;;;;;5.00;1.90;;;;;;;;;;6309076;28;20069;-63
2022/02/12 17:24:52;;;;;;;4.68;1.98;;;;;;;;;;6313737;28;20113;-67
2022/02/12 17:27:55;;;;;;;4.68;1.92;;;;;;;;;;6313949;28;20131;-65
2022/02/12 17:30:56;;;;;;;4.05;1.95;;;;;;;;;;6310991;28;20041;-65
2022/02/12 17:33:58;;;;;;;2.70;1.92;;;;;;;;;;6312185;28;20047;-65
2022/02/12 17:37:00;;;;;;;3.78;1.77;;;;;;;;;;6313216;28;20130;-65
2022/02/12 17:40:04;;;;;;;2.03;1.50;;;;;;;;;;6305428;28;20135;-64
2022/02/12 17:43:05;;;;;;;3.97;1.60;;;;;;;;;;6307447;28;20407;-64
2022/02/12 17:46:07;;;;;;;1.80;1.40;;;;;;;;;;6307479;28;20102;-66
2022/02/12 17:49:09;;;;;;;3.70;1.60;;;;;;;;;;6307748;28;20123;-65
2022/02/12 17:52:11;;;;;;;2.83;1.63;;;;;;;;;;6308725;28;20049;-65
2022/02/12 17:55:14;;;;;;;4.75;1.90;;;;;;;;;;6302907;28;20078;-65
2022/02/12 17:58:15;;;;;;;5.45;1.80;;;;;;;;;;6305025;28;20037;-65
2022/02/12 18:01:17;;;;;;;2.65;1.83;;;;;;;;;;6301882;28;20064;-66
2022/02/12 18:04:18;;;;;;;3.40;1.95;;;;;;;;;;6315227;28;20444;-65
2022/02/12 18:07:20;;;;;;;5.88;1.90;;;;;;;;;;6313391;28;20949;-66